Terminal Aerodrome Forecast
Issued by NWS Twin Cities, MN

Home | Current Version | Previous Version | Graphics & Text | Print | Product List | Glossary On
Versions: 1 2 3 4 5 6 7 8 9 10 11 12 13 14 15 16
485
FTUS43 KMPX 240520
TAFEAU
TAF
KEAU 240520Z 2406/2506 19005KT P6SM VCSH SCT040 BKN100
     FM240900 20005KT 4SM BR SCT005 SCT120
      TEMPO 2409/2413 1SM BR BKN005
     FM241400 23004KT P6SM SCT020 SCT120
     FM250000 VRB03KT P6SM SCT180=

USA.gov is the U.S. government's official web portal to all federal, state and local government web resources and services.